< < Back
Terminal Aerodrome Forecast


Current Version              Previous Versions:   1  2  3  4  5  6  7  8  9  

Terminal Aerodrome Forecast

232
FTAK31 PAJN 120520
TAFAHN
TAF
PAHN 120520Z 1206/1306 30012KT P6SM VCSH FEW009 OVC080
     FM121500 09010KT P6SM -RA SCT025 OVC035
      AMD LTD TO CLD VIS AND WIND=



Latest METAR

890
SAUS70 KWBC 120800
MTRAHN
METAR KAHN 120751Z AUTO 00000KT 10SM CLR M01/M02 A3015 RMK AO2 SLP216
T10061022


USA.gov is the U.S. government's official web portal to all federal, state and local government web resources and services.